createdAt,value
2022-12-28T00:00:03.481Z,99325.06
2022-12-28T00:02:40.666Z,99321.13
2022-12-28T00:05:10.005Z,99328.69
2022-12-28T00:07:38.337Z,99307.41
2022-12-28T00:10:08.063Z,99311.50
2022-12-28T00:12:37.831Z,99310.75
2022-12-28T00:15:07.095Z,99304.34
2022-12-28T00:17:35.526Z,99305.41
2022-12-28T00:20:03.852Z,99300.66
2022-12-28T00:22:32.166Z,99303.22
2022-12-28T00:25:00.489Z,99305.00
2022-12-28T00:27:28.783Z,99303.44
2022-12-28T00:29:58.600Z,99296.47
2022-12-28T00:32:28.020Z,99294.13
2022-12-28T00:34:56.326Z,99306.03
2022-12-28T00:37:24.639Z,99299.91
2022-12-28T00:39:52.956Z,99294.16
2022-12-28T00:42:21.254Z,99286.44
2022-12-28T00:44:49.651Z,99266.97
2022-12-28T00:47:19.419Z,99270.19
2022-12-28T00:49:48.653Z,99265.16
2022-12-28T00:52:16.997Z,99266.13
2022-12-28T00:54:45.421Z,99263.56
2022-12-28T00:57:13.864Z,99262.25
2022-12-28T00:59:42.194Z,99255.81
2022-12-28T01:02:10.704Z,99252.47
2022-12-28T01:04:40.592Z,99253.88
2022-12-28T01:07:08.986Z,99255.44
2022-12-28T01:09:37.296Z,99253.97
2022-12-28T01:12:06.143Z,99246.00
2022-12-28T01:14:34.951Z,99245.00
2022-12-28T01:17:03.305Z,99247.97
2022-12-28T01:19:32.586Z,99247.28
2022-12-28T01:22:02.213Z,99236.78
2022-12-28T01:24:30.658Z,99235.91
2022-12-28T01:27:01.730Z,99227.59
2022-12-28T01:29:30.160Z,99229.09
2022-12-28T01:31:58.757Z,99221.75
2022-12-28T01:34:31.019Z,99201.78
2022-12-28T01:36:59.342Z,99199.72
2022-12-28T01:39:30.514Z,99191.91
2022-12-28T01:41:58.906Z,99187.44
2022-12-28T01:44:50.610Z,99181.44
2022-12-28T01:47:23.201Z,99176.94
2022-12-28T01:50:06.677Z,99170.47
2022-12-28T01:52:39.574Z,99176.59
2022-12-28T01:55:13.536Z,99170.22
2022-12-28T01:57:48.140Z,99165.41
2022-12-28T02:00:18.277Z,99147.53
2022-12-28T02:02:53.411Z,99161.91
2022-12-28T02:05:25.696Z,99148.13
2022-12-28T02:07:56.621Z,99144.44
2022-12-28T02:10:42.902Z,99138.72
2022-12-28T02:13:15.204Z,99138.31
2022-12-28T02:15:48.425Z,99138.06
2022-12-28T02:18:19.119Z,99143.50
2022-12-28T02:21:10.733Z,99127.47
2022-12-28T02:23:52.665Z,99120.13
2022-12-28T02:26:44.388Z,99114.78
2022-12-28T02:29:36.742Z,99107.28
2022-12-28T02:32:26.183Z,99099.94
2022-12-28T02:35:04.038Z,99093.44
2022-12-28T02:37:37.443Z,99088.25
2022-12-28T02:40:12.123Z,99074.41
2022-12-28T02:42:42.096Z,99063.53
2022-12-28T02:45:48.548Z,99072.22
2022-12-28T02:48:34.551Z,99073.88
2022-12-28T02:51:15.420Z,99042.72
2022-12-28T02:54:01.744Z,99026.19
2022-12-28T02:56:40.184Z,99030.91
2022-12-28T02:59:26.401Z,99025.84
2022-12-28T03:02:18.213Z,99019.41
2022-12-28T03:05:01.341Z,99024.44
2022-12-28T03:07:56.499Z,99038.41
2022-12-28T03:10:29.959Z,99015.50
2022-12-28T03:13:04.549Z,99015.16
2022-12-28T03:15:38.802Z,99023.16
2022-12-28T03:18:31.890Z,99013.75
2022-12-28T03:21:22.256Z,99003.44
2022-12-28T03:24:11.511Z,98998.09
2022-12-28T03:27:04.852Z,99010.13
2022-12-28T03:29:59.503Z,99008.09
2022-12-28T03:32:31.412Z,99018.94
2022-12-28T03:35:01.209Z,99006.63
2022-12-28T03:37:35.201Z,98977.91
2022-12-28T03:40:13.493Z,99002.53
2022-12-28T03:43:04.061Z,99006.19
2022-12-28T03:45:44.884Z,99000.88
2022-12-28T03:48:17.200Z,99000.03
2022-12-28T03:50:50.930Z,98987.84
2022-12-28T03:53:26.017Z,98991.25
2022-12-28T03:56:07.971Z,98994.53
2022-12-28T03:58:36.997Z,98993.69
2022-12-28T04:01:08.017Z,98989.69
2022-12-28T04:03:37.972Z,98994.69
2022-12-28T04:06:08.469Z,98986.84
2022-12-28T04:08:36.986Z,98982.03
2022-12-28T04:11:07.007Z,98992.88
2022-12-28T04:13:35.538Z,98978.59
2022-12-28T04:16:15.045Z,98966.38
2022-12-28T04:18:44.876Z,98963.63
2022-12-28T04:21:16.092Z,98946.88
2022-12-28T04:23:46.346Z,98944.69
2022-12-28T04:26:20.170Z,98948.09
2022-12-28T04:28:50.582Z,98948.63
2022-12-28T04:31:44.770Z,98945.72
2022-12-28T04:34:16.340Z,98945.63
2022-12-28T04:36:54.100Z,98949.50
2022-12-28T04:39:24.045Z,98939.28
2022-12-28T04:41:52.703Z,98940.75
2022-12-28T04:44:21.101Z,98945.00
2022-12-28T04:46:49.519Z,98943.31
2022-12-28T04:49:17.956Z,98939.78
2022-12-28T04:51:46.279Z,98947.00
2022-12-28T04:54:15.997Z,98936.25
2022-12-28T04:56:44.660Z,98941.19
2022-12-28T04:59:12.918Z,98933.88
2022-12-28T05:01:41.593Z,98939.50
2022-12-28T05:04:10.252Z,98936.72
2022-12-28T05:06:38.674Z,98929.19
2022-12-28T05:09:07.111Z,98927.13
2022-12-28T05:11:36.830Z,98927.78
2022-12-28T05:14:05.153Z,98930.84
2022-12-28T05:16:33.646Z,98937.94
2022-12-28T05:19:02.322Z,98925.53
2022-12-28T05:21:30.965Z,98914.22
2022-12-28T05:23:59.512Z,98916.16
2022-12-28T05:26:29.976Z,98919.34
2022-12-28T05:28:59.733Z,98924.09
2022-12-28T05:31:28.545Z,98927.53
2022-12-28T05:33:57.581Z,98919.34
2022-12-28T05:36:27.929Z,98912.75
2022-12-28T05:38:57.413Z,98914.59
2022-12-28T05:41:27.528Z,98907.41
2022-12-28T05:43:56.875Z,98903.34
2022-12-28T05:46:30.098Z,98887.34
2022-12-28T05:48:59.290Z,98899.84
2022-12-28T05:51:29.691Z,98891.16
2022-12-28T05:54:00.061Z,98882.56
2022-12-28T05:56:30.371Z,98887.66
2022-12-28T05:59:00.602Z,98882.84
2022-12-28T06:01:33.025Z,98878.88
2022-12-28T06:04:02.917Z,98880.38
2022-12-28T06:06:35.898Z,98877.28
2022-12-28T06:09:05.410Z,98884.06
2022-12-28T06:11:33.835Z,98884.06
2022-12-28T06:14:03.710Z,98870.44
2022-12-28T06:16:38.151Z,98872.69
2022-12-28T06:19:07.865Z,98870.72
2022-12-28T06:21:38.093Z,98879.25
2022-12-28T06:24:09.857Z,98873.13
2022-12-28T06:26:41.753Z,98865.66
2022-12-28T06:29:10.629Z,98854.47
2022-12-28T06:31:42.627Z,98833.66
2022-12-28T06:34:11.674Z,98850.19
2022-12-28T06:36:41.495Z,98857.59
2022-12-28T06:39:11.629Z,98858.50
2022-12-28T06:41:40.398Z,98825.66
2022-12-28T06:44:09.666Z,98861.78
2022-12-28T06:46:38.450Z,98849.84
2022-12-28T06:49:10.264Z,98843.66
2022-12-28T06:51:41.497Z,98841.78
2022-12-28T06:54:10.898Z,98847.53
2022-12-28T06:56:39.691Z,98849.47
2022-12-28T06:59:08.562Z,98833.47
2022-12-28T07:01:38.704Z,98840.75
2022-12-28T07:04:10.985Z,98833.28
2022-12-28T07:06:41.673Z,98840.56
2022-12-28T07:09:14.296Z,98829.41
2022-12-28T07:11:43.564Z,98827.91
2022-12-28T07:14:12.601Z,98827.66
2022-12-28T07:19:13.063Z,98818.66
2022-12-28T07:21:41.599Z,98823.94
2022-12-28T07:24:10.536Z,98814.22
2022-12-28T07:26:41.136Z,98817.56
2022-12-28T07:29:09.980Z,98813.66
2022-12-28T07:31:45.131Z,98816.50
2022-12-28T07:34:16.359Z,98810.94
2022-12-28T07:36:44.894Z,98821.09
2022-12-28T07:39:13.447Z,98798.94
2022-12-28T07:41:41.909Z,98821.91
2022-12-28T07:44:11.383Z,98818.81
2022-12-28T07:46:39.766Z,98812.94
2022-12-28T07:49:08.352Z,98814.25
2022-12-28T07:51:40.683Z,98811.16
2022-12-28T07:54:09.120Z,98814.88
2022-12-28T07:59:06.579Z,98799.63
2022-12-28T08:01:36.841Z,98792.78
2022-12-28T08:04:07.467Z,98804.53
2022-12-28T08:06:38.570Z,98793.31
2022-12-28T08:09:10.292Z,98790.81
2022-12-28T08:11:40.709Z,98793.38
2022-12-28T08:14:09.607Z,98793.50
2022-12-28T08:16:40.025Z,98791.47
2022-12-28T08:19:09.875Z,98787.44
2022-12-28T08:21:40.351Z,98789.25
2022-12-28T08:24:14.503Z,98781.09
2022-12-28T08:26:43.865Z,98785.16
2022-12-28T08:29:14.307Z,98783.44
2022-12-28T08:31:44.333Z,98790.28
2022-12-28T08:34:14.766Z,98782.34
2022-12-28T08:36:43.281Z,98770.56
2022-12-28T08:39:13.931Z,98778.44
2022-12-28T08:41:42.634Z,98780.16
2022-12-28T08:44:13.061Z,98781.06
2022-12-28T08:46:43.835Z,98791.19
2022-12-28T08:49:12.959Z,98780.63
2022-12-28T08:51:42.562Z,98781.41
2022-12-28T08:54:13.561Z,98791.75
2022-12-28T08:56:45.315Z,98774.63
2022-12-28T08:59:16.181Z,98768.41
2022-12-28T09:01:45.436Z,98773.09
2022-12-28T09:04:16.189Z,98771.25
2022-12-28T09:06:44.873Z,98777.63
2022-12-28T09:09:15.419Z,98770.91
2022-12-28T09:11:45.578Z,98770.94
2022-12-28T09:14:22.608Z,98766.63
2022-12-28T09:16:53.426Z,98765.78
2022-12-28T09:19:22.004Z,98760.75
2022-12-28T09:21:52.554Z,98756.94
2022-12-28T09:24:21.734Z,98757.38
2022-12-28T09:26:55.470Z,98763.50
2022-12-28T09:29:23.834Z,98766.00
2022-12-28T09:31:52.210Z,98760.31
2022-12-28T09:34:35.415Z,98764.53
2022-12-28T09:37:05.434Z,98763.63
2022-12-28T09:39:33.857Z,98767.34
2022-12-28T09:42:05.319Z,98747.91
2022-12-28T09:44:58.004Z,98759.34
2022-12-28T09:47:34.904Z,98758.81
2022-12-28T09:50:29.857Z,98758.06
2022-12-28T09:53:22.611Z,98754.13
2022-12-28T09:56:01.115Z,98750.19
2022-12-28T09:58:37.986Z,98750.50
2022-12-28T10:01:12.429Z,98751.19
2022-12-28T10:03:43.237Z,98753.47
2022-12-28T10:06:13.814Z,98744.78
2022-12-28T10:08:45.602Z,98745.56
2022-12-28T10:11:19.657Z,98737.97
2022-12-28T10:13:56.452Z,98739.78
2022-12-28T10:16:27.680Z,98734.41
2022-12-28T10:18:56.921Z,98734.59
2022-12-28T10:21:32.553Z,98730.66
2022-12-28T10:26:51.436Z,98722.63
2022-12-28T10:29:22.904Z,98719.06
2022-12-28T10:32:00.198Z,98715.34
2022-12-28T10:34:36.739Z,98707.28
2022-12-28T10:37:07.112Z,98709.13
2022-12-28T10:39:50.987Z,98705.63
2022-12-28T10:42:24.617Z,98706.66
2022-12-28T10:44:58.780Z,98699.03
2022-12-28T10:47:31.471Z,98697.56
2022-12-28T10:50:35.946Z,98692.81
2022-12-28T10:52:58.808Z,98689.50
2022-12-28T10:55:29.987Z,98693.84
2022-12-28T10:58:29.717Z,98676.19
2022-12-28T11:01:02.550Z,98670.63
2022-12-28T11:03:35.187Z,98678.28
2022-12-28T11:06:15.099Z,98669.75
2022-12-28T11:08:45.724Z,98658.56
2022-12-28T11:11:22.513Z,98666.25
2022-12-28T11:13:56.856Z,98660.66
2022-12-28T11:16:26.833Z,98657.28
2022-12-28T11:18:55.997Z,98652.69
2022-12-28T11:21:24.392Z,98650.59
2022-12-28T11:23:55.271Z,98643.28
2022-12-28T11:26:24.104Z,98641.38
2022-12-28T11:28:53.785Z,98639.22
2022-12-28T11:31:31.941Z,98625.03
2022-12-28T11:34:03.470Z,98629.47
2022-12-28T11:36:33.258Z,98618.78
2022-12-28T11:39:33.020Z,98629.13
2022-12-28T11:42:37.056Z,98630.78
2022-12-28T11:44:53.061Z,98630.31
2022-12-28T11:47:33.925Z,98624.47
2022-12-28T11:50:41.306Z,98630.47
2022-12-28T11:53:44.767Z,98623.47
2022-12-28T11:56:14.993Z,98622.03
2022-12-28T11:58:47.262Z,98613.25
2022-12-28T12:01:36.576Z,98615.38
2022-12-28T12:04:11.690Z,98612.41
2022-12-28T12:06:58.504Z,98609.59
2022-12-28T12:09:28.124Z,98604.34
2022-12-28T12:12:00.205Z,98597.97
2022-12-28T12:14:31.311Z,98599.84
2022-12-28T12:17:03.523Z,98597.63
2022-12-28T12:19:33.135Z,98597.78
2022-12-28T12:22:07.786Z,98586.56
2022-12-28T12:24:40.700Z,98589.38
2022-12-28T12:27:14.724Z,98579.94
2022-12-28T12:29:45.141Z,98578.19
2022-12-28T12:32:16.531Z,98574.66
2022-12-28T12:34:48.157Z,98563.94
2022-12-28T12:37:24.018Z,98557.47
2022-12-28T12:40:04.363Z,98563.72
2022-12-28T12:42:41.087Z,98558.84
2022-12-28T12:45:15.208Z,98565.78
2022-12-28T12:47:57.294Z,98559.06
2022-12-28T12:50:36.427Z,98555.59
2022-12-28T12:53:17.887Z,98553.97
2022-12-28T12:55:51.818Z,98547.91
2022-12-28T12:58:25.297Z,98545.00
2022-12-28T13:01:03.919Z,98541.13
2022-12-28T13:03:39.290Z,98542.31
2022-12-28T13:06:07.770Z,98541.88
2022-12-28T13:08:38.377Z,98534.31
2022-12-28T13:11:09.222Z,98525.69
2022-12-28T13:13:39.381Z,98527.19
2022-12-28T13:16:10.109Z,98526.13
2022-12-28T13:18:46.165Z,98514.53
2022-12-28T13:21:20.292Z,98512.97
2022-12-28T13:23:48.690Z,98503.84
2022-12-28T13:26:17.302Z,98500.53
2022-12-28T13:28:51.155Z,98494.03
2022-12-28T13:31:20.230Z,98493.50
2022-12-28T13:33:55.312Z,98483.53
2022-12-28T13:36:25.811Z,98473.66
2022-12-28T13:39:04.617Z,98469.06
2022-12-28T13:41:33.467Z,98476.50
2022-12-28T13:44:14.485Z,98473.22
2022-12-28T13:46:45.122Z,98475.34
2022-12-28T13:49:13.975Z,98467.41
2022-12-28T13:51:43.100Z,98470.44
2022-12-28T13:54:14.209Z,98465.81
2022-12-28T13:56:45.631Z,98462.88
2022-12-28T13:59:17.379Z,98467.38
2022-12-28T14:01:47.357Z,98468.69
2022-12-28T14:07:04.958Z,98459.72
2022-12-28T14:09:33.267Z,98451.81
2022-12-28T14:12:03.678Z,98459.56
2022-12-28T14:14:35.893Z,98466.53
2022-12-28T14:17:04.298Z,98455.75
2022-12-28T14:19:32.542Z,98451.59
2022-12-28T14:22:00.578Z,98453.25
2022-12-28T14:24:28.832Z,98448.03
2022-12-28T14:26:59.113Z,98448.31
2022-12-28T14:29:29.711Z,98443.50
2022-12-28T14:32:00.984Z,98438.47
2022-12-28T14:34:30.663Z,98436.66
2022-12-28T14:37:01.090Z,98440.09
2022-12-28T14:39:34.516Z,98435.31
2022-12-28T14:42:03.697Z,98431.97
2022-12-28T14:44:33.463Z,98434.50
2022-12-28T14:47:03.242Z,98423.34
2022-12-28T14:49:36.020Z,98425.88
2022-12-28T14:52:22.833Z,98417.72
2022-12-28T14:54:51.682Z,98417.53
2022-12-28T14:57:21.724Z,98415.66
2022-12-28T14:59:51.895Z,98410.72
2022-12-28T15:02:38.983Z,98410.63
2022-12-28T15:05:34.774Z,98408.66
2022-12-28T15:08:03.087Z,98408.16
2022-12-28T15:10:31.946Z,98400.91
2022-12-28T15:13:00.003Z,98400.50
2022-12-28T15:15:28.148Z,98401.63
2022-12-28T15:17:57.827Z,98401.84
2022-12-28T15:20:28.160Z,98398.81
2022-12-28T15:22:56.288Z,98395.78
2022-12-28T15:25:24.570Z,98398.97
2022-12-28T15:27:54.678Z,98388.31
2022-12-28T15:30:28.742Z,98391.00
2022-12-28T15:32:58.764Z,98395.38
2022-12-28T15:35:27.196Z,98381.47
2022-12-28T15:37:55.335Z,98389.22
2022-12-28T15:40:23.481Z,98375.09
2022-12-28T15:42:51.585Z,98380.94
2022-12-28T15:45:19.909Z,98387.97
2022-12-28T15:47:48.013Z,98391.63
2022-12-28T15:50:17.524Z,98392.97
2022-12-28T15:52:45.645Z,98395.66
2022-12-28T15:55:13.788Z,98384.91
2022-12-28T15:57:41.945Z,98389.53
2022-12-28T16:00:11.874Z,98378.31
2022-12-28T16:02:40.083Z,98370.00
2022-12-28T16:05:08.643Z,98368.25
2022-12-28T16:07:38.439Z,98362.56
2022-12-28T16:10:07.112Z,98361.50
2022-12-28T16:12:35.350Z,98363.78
2022-12-28T16:15:03.459Z,98358.16
2022-12-28T16:17:31.608Z,98358.00
2022-12-28T16:19:59.628Z,98361.88
2022-12-28T16:22:27.871Z,98361.50
2022-12-28T16:24:57.757Z,98357.97
2022-12-28T16:27:25.919Z,98360.78
2022-12-28T16:29:58.598Z,98355.03
2022-12-28T16:32:27.985Z,98355.63
2022-12-28T16:34:56.076Z,98355.28
2022-12-28T16:37:24.201Z,98349.28
2022-12-28T16:39:52.305Z,98346.13
2022-12-28T16:42:21.729Z,98349.09
2022-12-28T16:44:50.882Z,98344.47
2022-12-28T16:47:18.856Z,98347.56
2022-12-28T16:49:46.921Z,98342.59
2022-12-28T16:52:15.006Z,98313.94
2022-12-28T16:54:45.350Z,98336.81
2022-12-28T16:57:13.725Z,98337.44
2022-12-28T16:59:43.125Z,98334.31
2022-12-28T17:02:13.645Z,98321.66
2022-12-28T17:04:41.869Z,98333.91
2022-12-28T17:07:09.896Z,98335.00
2022-12-28T17:09:37.974Z,98330.25
2022-12-28T17:12:06.499Z,98333.03
2022-12-28T17:14:38.220Z,98331.09
2022-12-28T17:17:08.183Z,98336.66
2022-12-28T17:19:36.348Z,98331.19
2022-12-28T17:22:05.125Z,98326.31
2022-12-28T17:24:33.213Z,98322.38
2022-12-28T17:27:07.493Z,98314.94
2022-12-28T17:29:37.351Z,98325.00
2022-12-28T17:32:05.858Z,98313.69
2022-12-28T17:34:35.464Z,98306.06
2022-12-28T17:37:03.559Z,98303.06
2022-12-28T17:39:37.652Z,98303.78
2022-12-28T17:42:10.155Z,98303.72
2022-12-28T17:44:38.263Z,98297.75
2022-12-28T17:47:06.317Z,98293.75
2022-12-28T17:49:35.714Z,98293.25
2022-12-28T17:52:03.946Z,98282.66
2022-12-28T17:54:34.170Z,98281.16
2022-12-28T17:57:02.283Z,98281.09
2022-12-28T17:59:30.483Z,98268.44
2022-12-28T18:02:01.504Z,98263.50
2022-12-28T18:04:29.808Z,98268.81
2022-12-28T18:06:59.187Z,98254.88
2022-12-28T18:09:28.157Z,98247.69
2022-12-28T18:11:56.826Z,98252.31
2022-12-28T18:14:25.050Z,98243.63
2022-12-28T18:16:53.184Z,98244.53
2022-12-28T18:19:21.419Z,98250.25
2022-12-28T18:21:49.864Z,98238.72
2022-12-28T18:24:20.925Z,98241.41
2022-12-28T18:26:51.916Z,98235.09
2022-12-28T18:29:19.942Z,98232.72
2022-12-28T18:31:47.981Z,98228.53
2022-12-28T18:34:16.183Z,98215.22
2022-12-28T18:36:44.245Z,98219.28
2022-12-28T18:39:12.460Z,98220.09
2022-12-28T18:41:41.903Z,98210.28
2022-12-28T18:44:10.326Z,98202.88
2022-12-28T18:46:40.763Z,98202.88
2022-12-28T18:49:08.947Z,98192.56
2022-12-28T18:51:37.088Z,98197.47
2022-12-28T18:54:05.551Z,98193.69
2022-12-28T18:56:33.799Z,98193.50
2022-12-28T18:59:03.178Z,98189.06
2022-12-28T19:04:19.928Z,98181.44
2022-12-28T19:06:48.222Z,98182.19
2022-12-28T19:09:16.421Z,98178.75
2022-12-28T19:11:45.207Z,98178.00
2022-12-28T19:14:16.090Z,98169.75
2022-12-28T19:16:45.325Z,98162.31
2022-12-28T19:19:13.602Z,98164.84
2022-12-28T19:21:42.117Z,98158.25
2022-12-28T19:24:12.443Z,98156.44
2022-12-28T19:26:41.139Z,98156.78
2022-12-28T19:29:09.587Z,98154.22
2022-12-28T19:31:39.198Z,98155.91
2022-12-28T19:34:07.425Z,98149.25
2022-12-28T19:36:35.555Z,98153.75
2022-12-28T19:39:03.541Z,98149.88
2022-12-28T19:41:31.619Z,98154.19
2022-12-28T19:43:59.895Z,98155.47
2022-12-28T19:46:32.121Z,98159.47
2022-12-28T19:49:02.565Z,98159.84
2022-12-28T19:51:32.316Z,98157.19
2022-12-28T19:54:01.179Z,98154.66
2022-12-28T19:56:29.302Z,98150.63
2022-12-28T19:59:04.966Z,98156.94
2022-12-28T20:01:34.681Z,98153.56
2022-12-28T20:04:10.409Z,98145.28
2022-12-28T20:06:41.911Z,98142.16
2022-12-28T20:09:10.141Z,98139.13
2022-12-28T20:11:38.397Z,98135.94
2022-12-28T20:14:07.131Z,98135.19
2022-12-28T20:16:35.936Z,98128.50
2022-12-28T20:19:08.559Z,98131.84
2022-12-28T20:21:37.145Z,98130.59
2022-12-28T20:24:07.599Z,98126.44
2022-12-28T20:26:36.214Z,98121.59
2022-12-28T20:29:04.909Z,98120.75
2022-12-28T20:31:33.066Z,98115.75
2022-12-28T20:34:01.760Z,98124.25
2022-12-28T20:36:34.065Z,98113.09
2022-12-28T20:39:02.522Z,98114.56
2022-12-28T20:41:49.497Z,98117.25
2022-12-28T20:44:18.329Z,98108.53
2022-12-28T20:46:46.970Z,98107.13
2022-12-28T20:49:15.138Z,98102.00
2022-12-28T20:51:46.762Z,98092.63
2022-12-28T20:54:15.164Z,98099.97
2022-12-28T20:56:43.847Z,98092.84
2022-12-28T20:59:14.303Z,98091.59
2022-12-28T21:01:42.762Z,98097.34
2022-12-28T21:04:11.416Z,98095.00
2022-12-28T21:06:39.573Z,98087.00
2022-12-28T21:09:08.972Z,98088.97
2022-12-28T21:11:37.257Z,98093.72
2022-12-28T21:14:05.435Z,98079.22
2022-12-28T21:16:33.605Z,98067.06
2022-12-28T21:19:04.039Z,98073.81
2022-12-28T21:21:32.110Z,98074.75
2022-12-28T21:24:00.268Z,98072.50
2022-12-28T21:26:29.897Z,98068.13
2022-12-28T21:28:58.322Z,98068.44
2022-12-28T21:31:26.400Z,98065.00
2022-12-28T21:33:55.379Z,98069.13
2022-12-28T21:36:23.625Z,98067.72
2022-12-28T21:38:51.765Z,98063.44
2022-12-28T21:41:41.333Z,98061.09
2022-12-28T21:44:11.625Z,98062.19
2022-12-28T21:46:40.201Z,98061.44
2022-12-28T21:49:10.436Z,98049.97
2022-12-28T21:51:40.532Z,98048.03
2022-12-28T21:54:09.563Z,98055.50
2022-12-28T21:56:37.969Z,98047.84
2022-12-28T22:02:57.068Z,98051.84
2022-12-28T22:05:43.192Z,98043.91
2022-12-28T22:08:28.724Z,98037.38
2022-12-28T22:11:15.103Z,98046.13
2022-12-28T22:13:43.351Z,98037.00
2022-12-28T22:16:11.462Z,98036.31
2022-12-28T22:21:29.186Z,98044.53
2022-12-28T22:23:57.253Z,98038.94
2022-12-28T22:26:25.295Z,98036.31
2022-12-28T22:28:53.395Z,98033.84
2022-12-28T22:31:21.486Z,98037.81
2022-12-28T22:33:53.317Z,98030.63
2022-12-28T22:36:21.489Z,98023.31
2022-12-28T22:38:49.502Z,98036.88
2022-12-28T22:41:17.476Z,98041.34
2022-12-28T22:43:49.542Z,98033.34
2022-12-28T22:46:17.642Z,98015.84
2022-12-28T22:48:46.041Z,98017.06
2022-12-28T22:51:16.387Z,98021.00
2022-12-28T22:53:44.413Z,98020.94
2022-12-28T22:56:15.866Z,98019.66
2022-12-28T22:58:43.949Z,98023.59
2022-12-28T23:01:13.378Z,98012.00
2022-12-28T23:03:42.786Z,98017.28
2022-12-28T23:06:11.674Z,98007.22
2022-12-28T23:08:41.020Z,98006.91
2022-12-28T23:11:31.102Z,98013.03
2022-12-28T23:14:19.838Z,98010.66
2022-12-28T23:16:46.984Z,98012.81
2022-12-28T23:19:32.510Z,98006.03
2022-12-28T23:22:20.426Z,98015.63
2022-12-28T23:25:07.637Z,97995.63
2022-12-28T23:27:36.625Z,98007.75
2022-12-28T23:30:04.955Z,98008.56
2022-12-28T23:32:33.005Z,98001.31
2022-12-28T23:35:02.137Z,98004.59
2022-12-28T23:37:30.385Z,98009.31
2022-12-28T23:39:59.728Z,98006.19
2022-12-28T23:42:27.891Z,98000.16
2022-12-28T23:44:56.002Z,97994.16
2022-12-28T23:47:24.084Z,97988.38
2022-12-28T23:49:52.160Z,97987.63
2022-12-28T23:52:25.632Z,97987.69
2022-12-28T23:54:54.153Z,97982.31
2022-12-28T23:57:23.722Z,97970.63
2022-12-28T23:59:51.889Z,97979.72
